createdAt,value
2022-11-17T00:01:42.946Z,97.47
2022-11-17T00:04:10.808Z,97.31
2022-11-17T00:06:38.316Z,97.94
2022-11-17T00:09:05.407Z,97.20
2022-11-17T00:11:52.551Z,98.16
2022-11-17T00:14:36.937Z,97.42
2022-11-17T00:17:05.937Z,97.03
2022-11-17T00:19:51.791Z,97.17
2022-11-17T00:22:19.122Z,97.56
2022-11-17T00:24:46.600Z,96.98
2022-11-17T00:27:13.992Z,97.11
2022-11-17T00:29:41.516Z,96.98
2022-11-17T00:32:31.326Z,97.58
2022-11-17T00:34:58.774Z,96.86
2022-11-17T00:37:26.381Z,96.90
2022-11-17T00:39:59.274Z,97.21
2022-11-17T00:42:28.147Z,97.11
2022-11-17T00:44:55.320Z,96.75
2022-11-17T00:47:22.435Z,97.60
2022-11-17T00:49:49.945Z,97.10
2022-11-17T00:52:17.195Z,97.68
2022-11-17T00:54:44.529Z,96.82
2022-11-17T00:57:11.746Z,97.19
2022-11-17T00:59:39.003Z,97.23
2022-11-17T01:02:06.216Z,97.24
2022-11-17T01:04:33.540Z,97.06
2022-11-17T01:07:00.710Z,96.79
2022-11-17T01:09:28.208Z,97.02
2022-11-17T01:11:55.663Z,97.16
2022-11-17T01:14:26.440Z,97.23
2022-11-17T01:16:54.070Z,96.58
2022-11-17T01:19:22.118Z,97.39
2022-11-17T01:21:49.304Z,96.73
2022-11-17T01:24:17.464Z,96.88
2022-11-17T01:26:45.724Z,96.73
2022-11-17T01:29:14.428Z,96.32
2022-11-17T01:31:43.638Z,96.88
2022-11-17T01:34:11.302Z,95.91
2022-11-17T01:36:58.667Z,96.69
2022-11-17T01:39:26.838Z,96.41
2022-11-17T01:41:54.373Z,95.73
2022-11-17T01:44:54.187Z,96.68
2022-11-17T01:47:42.785Z,95.82
2022-11-17T01:50:13.189Z,96.86
2022-11-17T01:52:41.221Z,96.37
2022-11-17T01:55:10.103Z,96.32
2022-11-17T01:57:44.510Z,96.02
2022-11-17T02:00:12.635Z,96.35
2022-11-17T02:02:41.456Z,96.25
2022-11-17T02:05:33.362Z,96.16
2022-11-17T02:08:02.502Z,95.60
2022-11-17T02:10:31.050Z,96.17
2022-11-17T02:12:58.754Z,96.20
2022-11-17T02:15:26.525Z,96.03
2022-11-17T02:17:54.363Z,95.68
2022-11-17T02:20:30.976Z,95.76
2022-11-17T02:23:10.597Z,95.55
2022-11-17T02:25:55.144Z,94.92
2022-11-17T02:28:31.301Z,95.48
2022-11-17T02:30:58.788Z,95.61
2022-11-17T02:33:41.267Z,95.43
2022-11-17T02:36:10.219Z,95.75
2022-11-17T02:38:55.969Z,95.34
2022-11-17T02:41:26.573Z,95.12
2022-11-17T02:44:05.534Z,94.63
2022-11-17T02:46:37.971Z,94.66
2022-11-17T02:49:13.587Z,94.71
2022-11-17T02:51:41.390Z,94.20
2022-11-17T02:54:09.577Z,94.94
2022-11-17T02:56:40.683Z,94.96
2022-11-17T02:59:08.293Z,94.46
2022-11-17T03:01:41.959Z,94.62
2022-11-17T03:04:18.604Z,94.10
2022-11-17T03:07:04.411Z,93.94
2022-11-17T03:09:31.670Z,93.99
2022-11-17T03:12:09.405Z,93.79
2022-11-17T03:14:39.826Z,94.36
2022-11-17T03:17:26.369Z,93.79
2022-11-17T03:19:59.366Z,93.69
2022-11-17T03:22:46.939Z,93.47
2022-11-17T03:25:16.585Z,93.48
2022-11-17T03:27:47.347Z,93.48
2022-11-17T03:30:15.703Z,93.64
2022-11-17T03:32:47.019Z,93.36
2022-11-17T03:35:17.782Z,93.72
2022-11-17T03:37:49.883Z,93.84
2022-11-17T03:40:23.030Z,93.58
2022-11-17T03:42:54.313Z,92.92
2022-11-17T03:45:21.484Z,93.06
2022-11-17T03:47:50.446Z,92.32
2022-11-17T03:50:21.969Z,93.28
2022-11-17T03:52:49.511Z,93.24
2022-11-17T03:55:17.547Z,93.16
2022-11-17T03:57:49.699Z,92.28
2022-11-17T04:00:17.400Z,92.51
2022-11-17T04:02:46.034Z,92.07
2022-11-17T04:05:14.526Z,91.87
2022-11-17T04:07:43.100Z,92.29
2022-11-17T04:10:14.416Z,91.82
2022-11-17T04:13:00.316Z,92.08
2022-11-17T04:15:45.935Z,91.72
2022-11-17T04:18:13.745Z,91.40
2022-11-17T04:20:41.224Z,91.81
2022-11-17T04:23:14.370Z,92.01
2022-11-17T04:26:04.591Z,91.27
2022-11-17T04:28:38.794Z,91.86
2022-11-17T04:31:10.332Z,91.56
2022-11-17T04:33:38.965Z,91.32
2022-11-17T04:36:06.827Z,91.40
2022-11-17T04:38:34.157Z,90.78
2022-11-17T04:41:24.617Z,90.57
2022-11-17T04:43:52.245Z,91.20
2022-11-17T04:46:20.124Z,90.72
2022-11-17T04:48:48.047Z,90.44
2022-11-17T04:51:16.010Z,90.57
2022-11-17T04:53:43.627Z,90.91
2022-11-17T04:56:11.309Z,90.68
2022-11-17T04:58:38.827Z,90.06
2022-11-17T05:01:16.293Z,90.63
2022-11-17T05:03:45.632Z,90.50
2022-11-17T05:06:23.300Z,90.38
2022-11-17T05:08:51.072Z,90.39
2022-11-17T05:11:36.532Z,89.74
2022-11-17T05:14:03.879Z,90.44
2022-11-17T05:17:10.957Z,89.81
2022-11-17T05:19:38.946Z,89.35
2022-11-17T05:22:25.060Z,89.57
2022-11-17T05:24:52.467Z,89.65
2022-11-17T05:27:20.177Z,89.58
2022-11-17T05:29:47.672Z,89.37
2022-11-17T05:32:14.859Z,89.38
2022-11-17T05:34:42.331Z,89.39
2022-11-17T05:37:09.845Z,89.55
2022-11-17T05:39:37.187Z,89.10
2022-11-17T05:42:04.454Z,89.04
2022-11-17T05:44:31.762Z,89.40
2022-11-17T05:46:59.079Z,89.78
2022-11-17T05:49:26.338Z,89.62
2022-11-17T05:51:53.727Z,89.34
2022-11-17T05:54:21.084Z,89.46
2022-11-17T05:56:53.862Z,89.15
2022-11-17T05:59:28.441Z,88.89
2022-11-17T06:02:01.377Z,88.92
2022-11-17T06:04:28.785Z,88.66
2022-11-17T06:06:59.595Z,88.30
2022-11-17T06:09:28.945Z,88.87
2022-11-17T06:11:58.615Z,89.35
2022-11-17T06:14:30.004Z,88.82
2022-11-17T06:16:59.682Z,88.67
2022-11-17T06:19:33.651Z,88.96
2022-11-17T06:22:16.073Z,88.67
2022-11-17T06:24:45.332Z,88.41
2022-11-17T06:27:14.114Z,88.32
2022-11-17T06:29:44.871Z,89.34
2022-11-17T06:32:16.335Z,89.32
2022-11-17T06:34:49.181Z,89.10
2022-11-17T06:37:19.324Z,88.46
2022-11-17T06:39:46.884Z,89.24
2022-11-17T06:42:14.081Z,88.73
2022-11-17T06:44:41.387Z,88.54
2022-11-17T06:47:08.663Z,88.32
2022-11-17T06:49:35.825Z,88.19
2022-11-17T06:52:03.159Z,87.83
2022-11-17T06:54:30.436Z,87.74
2022-11-17T06:56:57.873Z,88.37
2022-11-17T06:59:25.306Z,87.88
2022-11-17T07:01:52.633Z,87.81
2022-11-17T07:04:19.949Z,87.86
2022-11-17T07:06:47.239Z,88.25
2022-11-17T07:09:14.501Z,88.08
2022-11-17T07:11:41.948Z,88.23
2022-11-17T07:14:09.371Z,88.00
2022-11-17T07:16:36.485Z,87.81
2022-11-17T07:19:03.959Z,87.27
2022-11-17T07:21:31.444Z,87.45
2022-11-17T07:23:58.770Z,87.40
2022-11-17T07:26:25.965Z,87.17
2022-11-17T07:28:53.528Z,87.69
2022-11-17T07:31:20.978Z,86.81
2022-11-17T07:33:48.180Z,86.58
2022-11-17T07:36:15.718Z,86.15
2022-11-17T07:38:43.094Z,86.25
2022-11-17T07:41:12.642Z,86.59
2022-11-17T07:43:40.219Z,86.27
2022-11-17T07:46:08.798Z,85.98
2022-11-17T07:48:36.503Z,86.24
2022-11-17T07:51:04.576Z,86.25
2022-11-17T07:53:33.545Z,85.71
2022-11-17T07:56:07.980Z,85.79
2022-11-17T07:58:36.067Z,85.93
2022-11-17T08:01:07.365Z,86.10
2022-11-17T08:03:35.283Z,85.90
2022-11-17T08:06:03.358Z,85.61
2022-11-17T08:08:30.474Z,86.11
2022-11-17T08:11:01.790Z,85.96
2022-11-17T08:13:29.030Z,86.85
2022-11-17T08:15:57.391Z,87.40
2022-11-17T08:18:24.826Z,86.54
2022-11-17T08:20:52.005Z,86.42
2022-11-17T08:23:19.308Z,86.21
2022-11-17T08:25:46.833Z,85.24
2022-11-17T08:28:14.011Z,86.01
2022-11-17T08:30:41.280Z,85.71
2022-11-17T08:33:08.519Z,86.32
2022-11-17T08:35:37.558Z,84.69
2022-11-17T08:38:05.013Z,84.83
2022-11-17T08:40:32.558Z,84.72
2022-11-17T08:43:01.572Z,84.83
2022-11-17T08:45:29.217Z,84.62
2022-11-17T08:47:57.025Z,84.48
2022-11-17T08:50:24.588Z,84.19
2022-11-17T08:52:52.157Z,85.01
2022-11-17T08:55:19.897Z,84.74
2022-11-17T08:57:47.272Z,83.62
2022-11-17T09:00:14.888Z,84.12
2022-11-17T09:02:42.319Z,84.89
2022-11-17T09:05:10.442Z,84.77
2022-11-17T09:07:38.061Z,84.82
2022-11-17T09:10:06.111Z,84.51
2022-11-17T09:12:33.347Z,84.59
2022-11-17T09:15:00.596Z,84.41
2022-11-17T09:17:27.738Z,84.03
2022-11-17T09:19:54.888Z,84.23
2022-11-17T09:22:22.146Z,84.36
2022-11-17T09:24:52.361Z,84.41
2022-11-17T09:27:19.543Z,84.21
2022-11-17T09:29:48.116Z,84.23
2022-11-17T09:32:17.154Z,83.40
2022-11-17T09:34:44.397Z,83.89
2022-11-17T09:37:12.090Z,83.92
2022-11-17T09:39:39.369Z,83.74
2022-11-17T09:42:07.041Z,82.51
2022-11-17T09:44:43.513Z,81.71
2022-11-17T09:47:26.133Z,80.97
2022-11-17T09:49:58.382Z,81.41
2022-11-17T09:52:29.524Z,81.13
2022-11-17T09:54:56.913Z,80.88
2022-11-17T09:57:42.272Z,80.97
2022-11-17T10:00:15.070Z,81.80
2022-11-17T10:02:43.013Z,81.47
2022-11-17T10:05:29.462Z,81.52
2022-11-17T10:08:00.215Z,82.10
2022-11-17T10:10:39.893Z,81.52
2022-11-17T10:13:11.340Z,81.70
2022-11-17T10:15:42.581Z,82.00
2022-11-17T10:18:12.874Z,81.28
2022-11-17T10:20:41.106Z,81.91
2022-11-17T10:23:12.877Z,82.36
2022-11-17T10:25:41.781Z,82.39
2022-11-17T10:28:11.182Z,81.79
2022-11-17T10:30:38.270Z,81.78
2022-11-17T10:33:05.525Z,81.74
2022-11-17T10:35:34.394Z,81.64
2022-11-17T10:38:18.079Z,81.78
2022-11-17T10:40:49.947Z,81.70
2022-11-17T10:43:24.588Z,81.94
2022-11-17T10:45:56.810Z,81.83
2022-11-17T10:48:24.170Z,81.59
2022-11-17T10:50:55.821Z,81.26
2022-11-17T10:53:24.857Z,81.01
2022-11-17T10:55:54.768Z,81.74
2022-11-17T10:58:29.310Z,81.18
2022-11-17T11:00:57.774Z,81.08
2022-11-17T11:03:27.426Z,80.89
2022-11-17T11:05:58.702Z,81.37
2022-11-17T11:08:45.144Z,81.02
2022-11-17T11:11:38.750Z,81.43
2022-11-17T11:14:12.080Z,81.08
2022-11-17T11:16:45.037Z,80.70
2022-11-17T11:19:16.033Z,81.31
2022-11-17T11:21:53.797Z,81.24
2022-11-17T11:24:24.145Z,79.94
2022-11-17T11:27:09.753Z,80.17
2022-11-17T11:29:51.102Z,80.37
2022-11-17T11:32:29.212Z,81.23
2022-11-17T11:34:57.137Z,81.13
2022-11-17T11:37:28.821Z,80.68
2022-11-17T11:39:59.483Z,81.02
2022-11-17T11:42:41.834Z,80.50
2022-11-17T11:45:17.883Z,80.58
2022-11-17T11:47:59.328Z,80.34
2022-11-17T11:50:28.619Z,80.79
2022-11-17T11:53:07.398Z,80.09
2022-11-17T11:55:36.881Z,80.46
2022-11-17T11:58:22.821Z,80.40
2022-11-17T12:00:51.627Z,80.63
2022-11-17T12:03:23.583Z,80.23
2022-11-17T12:06:42.039Z,80.54
2022-11-17T12:09:28.043Z,80.29
2022-11-17T12:12:02.134Z,80.91
2022-11-17T12:14:29.590Z,79.91
2022-11-17T12:17:03.335Z,80.18
2022-11-17T12:19:53.547Z,80.01
2022-11-17T12:22:26.068Z,80.50
2022-11-17T12:24:56.689Z,80.41
2022-11-17T12:27:36.235Z,80.24
2022-11-17T12:30:05.445Z,79.77
2022-11-17T12:32:45.598Z,80.03
2022-11-17T12:35:21.661Z,79.98
2022-11-17T12:37:49.309Z,80.12
2022-11-17T12:40:35.045Z,80.03
2022-11-17T12:43:31.744Z,80.07
2022-11-17T12:45:58.987Z,79.89
2022-11-17T12:48:34.693Z,79.88
2022-11-17T12:51:05.089Z,79.87
2022-11-17T12:53:35.822Z,79.87
2022-11-17T12:56:21.677Z,79.75
2022-11-17T12:58:49.140Z,79.63
2022-11-17T13:01:20.442Z,79.81
2022-11-17T13:03:50.960Z,79.68
2022-11-17T13:06:36.402Z,79.26
2022-11-17T13:09:08.525Z,79.32
2022-11-17T13:11:35.877Z,79.54
2022-11-17T13:14:21.056Z,79.12
2022-11-17T13:16:51.759Z,78.93
2022-11-17T13:19:38.850Z,79.09
2022-11-17T13:22:15.041Z,78.46
2022-11-17T13:24:52.418Z,78.44
2022-11-17T13:27:29.333Z,78.34
2022-11-17T13:30:13.829Z,78.62
2022-11-17T13:32:43.253Z,78.49
2022-11-17T13:35:30.328Z,78.48
2022-11-17T13:38:01.595Z,78.22
2022-11-17T13:40:29.588Z,78.38
2022-11-17T13:42:57.461Z,77.66
2022-11-17T13:45:24.901Z,77.64
2022-11-17T13:47:53.859Z,78.01
2022-11-17T13:50:21.274Z,77.85
2022-11-17T13:52:53.012Z,77.68
2022-11-17T13:55:20.966Z,77.16
2022-11-17T13:58:00.857Z,76.89
2022-11-17T14:00:28.867Z,77.87
2022-11-17T14:03:04.041Z,77.02
2022-11-17T14:05:32.723Z,76.93
2022-11-17T14:08:11.293Z,78.06
2022-11-17T14:10:39.263Z,77.04
2022-11-17T14:13:06.563Z,78.06
2022-11-17T14:15:37.992Z,77.08
2022-11-17T14:18:15.703Z,77.28
2022-11-17T14:20:43.505Z,76.94
2022-11-17T14:23:10.706Z,77.60
2022-11-17T14:25:41.990Z,77.16
2022-11-17T14:28:16.287Z,78.03
2022-11-17T14:30:43.670Z,77.40
2022-11-17T14:33:13.816Z,78.03
2022-11-17T14:35:41.904Z,78.00
2022-11-17T14:38:27.177Z,76.80
2022-11-17T14:40:54.450Z,78.00
2022-11-17T14:43:21.957Z,76.68
2022-11-17T14:45:51.780Z,77.67
2022-11-17T14:48:20.570Z,77.72
2022-11-17T14:50:48.374Z,77.62
2022-11-17T14:53:15.902Z,76.40
2022-11-17T14:55:43.130Z,76.76
2022-11-17T14:58:10.528Z,77.24
2022-11-17T15:00:37.693Z,77.00
2022-11-17T15:03:05.295Z,76.64
2022-11-17T15:05:32.629Z,76.48
2022-11-17T15:08:00.318Z,76.24
2022-11-17T15:10:27.919Z,77.27
2022-11-17T15:12:55.912Z,76.35
2022-11-17T15:15:23.514Z,77.02
2022-11-17T15:17:50.955Z,76.66
2022-11-17T15:20:18.342Z,76.78
2022-11-17T15:22:45.715Z,76.47
2022-11-17T15:25:13.013Z,77.25
2022-11-17T15:27:40.215Z,76.34
2022-11-17T15:30:07.805Z,77.53
2022-11-17T15:32:36.605Z,76.57
2022-11-17T15:35:03.718Z,77.88
2022-11-17T15:37:30.889Z,77.32
2022-11-17T15:39:58.412Z,77.69
2022-11-17T15:42:25.908Z,77.43
2022-11-17T15:44:53.215Z,76.55
2022-11-17T15:47:20.724Z,77.10
2022-11-17T15:49:48.186Z,77.50
2022-11-17T15:52:15.435Z,77.29
2022-11-17T15:54:42.639Z,77.66
2022-11-17T15:57:09.853Z,77.16
2022-11-17T15:59:37.369Z,76.63
2022-11-17T16:02:10.641Z,76.99
2022-11-17T16:04:37.940Z,76.94
2022-11-17T16:07:05.400Z,77.41
2022-11-17T16:09:33.427Z,77.40
2022-11-17T16:12:01.205Z,77.27
2022-11-17T16:14:28.337Z,77.15
2022-11-17T16:16:55.858Z,75.96
2022-11-17T16:19:23.105Z,76.96
2022-11-17T16:21:50.760Z,76.57
2022-11-17T16:24:18.143Z,76.43
2022-11-17T16:26:46.018Z,76.98
2022-11-17T16:29:13.458Z,76.42
2022-11-17T16:31:41.263Z,75.84
2022-11-17T16:34:12.890Z,76.34
2022-11-17T16:36:41.139Z,76.86
2022-11-17T16:39:09.925Z,75.79
2022-11-17T16:41:38.190Z,76.70
2022-11-17T16:44:09.474Z,76.42
2022-11-17T16:46:36.925Z,76.12
2022-11-17T16:49:05.572Z,76.91
2022-11-17T16:51:33.238Z,76.90
2022-11-17T16:54:02.491Z,76.19
2022-11-17T16:56:29.901Z,75.50
2022-11-17T16:58:58.810Z,76.67
2022-11-17T17:01:27.506Z,75.95
2022-11-17T17:03:56.018Z,75.99
2022-11-17T17:06:23.570Z,76.68
2022-11-17T17:09:11.408Z,77.05
2022-11-17T17:11:39.002Z,75.95
2022-11-17T17:14:08.399Z,76.72
2022-11-17T17:16:36.744Z,76.24
2022-11-17T17:19:04.997Z,77.14
2022-11-17T17:21:32.873Z,77.39
2022-11-17T17:24:00.074Z,77.60
2022-11-17T17:26:28.559Z,76.75
2022-11-17T17:28:57.063Z,76.20
2022-11-17T17:31:25.507Z,77.79
2022-11-17T17:33:53.139Z,77.15
2022-11-17T17:36:21.420Z,76.64
2022-11-17T17:38:54.984Z,78.10
2022-11-17T17:41:24.784Z,77.16
2022-11-17T17:43:59.735Z,77.85
2022-11-17T17:46:29.923Z,77.43
2022-11-17T17:48:57.330Z,77.85
2022-11-17T17:51:25.998Z,78.51
2022-11-17T17:53:58.323Z,77.19
2022-11-17T17:56:25.827Z,77.70
2022-11-17T17:58:56.948Z,77.83
2022-11-17T18:01:25.270Z,78.14
2022-11-17T18:04:01.160Z,77.61
2022-11-17T18:06:28.724Z,78.60
2022-11-17T18:08:57.552Z,78.68
2022-11-17T18:11:25.106Z,78.62
2022-11-17T18:13:52.933Z,77.97
2022-11-17T18:16:21.744Z,78.23
2022-11-17T18:18:49.733Z,77.72
2022-11-17T18:21:18.147Z,78.35
2022-11-17T18:23:45.632Z,78.10
2022-11-17T18:26:16.781Z,78.70
2022-11-17T18:28:45.761Z,78.18
2022-11-17T18:31:12.929Z,78.35
2022-11-17T18:33:40.632Z,78.63
2022-11-17T18:36:08.841Z,78.54
2022-11-17T18:38:36.401Z,78.98
2022-11-17T18:41:07.850Z,78.31
2022-11-17T18:43:35.357Z,79.13
2022-11-17T18:46:03.529Z,78.73
2022-11-17T18:48:34.715Z,79.45
2022-11-17T18:51:19.167Z,79.79
2022-11-17T18:53:47.574Z,79.95
2022-11-17T18:56:16.698Z,80.11
2022-11-17T18:58:44.596Z,79.05
2022-11-17T19:01:14.772Z,80.15
2022-11-17T19:03:43.324Z,80.47
2022-11-17T19:06:11.480Z,79.12
2022-11-17T19:08:38.661Z,80.51
2022-11-17T19:11:06.712Z,79.69
2022-11-17T19:13:35.330Z,80.33
2022-11-17T19:16:09.762Z,79.79
2022-11-17T19:18:37.033Z,80.26
2022-11-17T19:21:09.287Z,81.05
2022-11-17T19:23:37.476Z,80.23
2022-11-17T19:26:24.768Z,81.29
2022-11-17T19:28:56.476Z,80.15
2022-11-17T19:31:23.715Z,81.48
2022-11-17T19:33:51.269Z,80.57
2022-11-17T19:36:20.306Z,81.17
2022-11-17T19:38:48.423Z,80.32
2022-11-17T19:41:26.260Z,80.57
2022-11-17T19:43:54.548Z,81.02
2022-11-17T19:46:23.023Z,81.22
2022-11-17T19:48:50.911Z,81.16
2022-11-17T19:51:22.653Z,79.73
2022-11-17T19:53:50.833Z,80.44
2022-11-17T19:56:18.666Z,81.03
2022-11-17T19:58:46.562Z,80.96
2022-11-17T20:01:15.788Z,81.18
2022-11-17T20:03:43.715Z,80.93
2022-11-17T20:06:12.053Z,80.61
2022-11-17T20:08:39.271Z,80.82
2022-11-17T20:11:10.801Z,80.80
2022-11-17T20:13:38.530Z,79.88
2022-11-17T20:16:11.678Z,80.52
2022-11-17T20:18:40.078Z,80.45
2022-11-17T20:21:07.678Z,80.70
2022-11-17T20:23:35.804Z,80.50
2022-11-17T20:26:04.669Z,79.93
2022-11-17T20:28:33.135Z,80.96
2022-11-17T20:31:06.009Z,80.65
2022-11-17T20:33:33.291Z,80.99
2022-11-17T20:36:01.312Z,79.83
2022-11-17T20:38:28.765Z,80.51
2022-11-17T20:40:56.450Z,80.71
2022-11-17T20:43:24.121Z,80.99
2022-11-17T20:45:52.166Z,80.30
2022-11-17T20:48:19.819Z,81.05
2022-11-17T20:50:57.368Z,79.84
2022-11-17T20:53:25.098Z,81.07
2022-11-17T20:55:52.449Z,80.68
2022-11-17T20:58:19.992Z,80.68
2022-11-17T21:00:47.543Z,81.28
2022-11-17T21:03:14.951Z,81.31
2022-11-17T21:05:42.367Z,79.72
2022-11-17T21:08:09.769Z,79.67
2022-11-17T21:10:37.336Z,80.26
2022-11-17T21:13:04.716Z,80.98
2022-11-17T21:15:32.177Z,80.75
2022-11-17T21:18:18.005Z,81.23
2022-11-17T21:20:45.604Z,81.26
2022-11-17T21:23:13.015Z,80.43
2022-11-17T21:25:40.718Z,80.70
2022-11-17T21:28:07.811Z,80.70
2022-11-17T21:30:35.133Z,80.28
2022-11-17T21:33:02.368Z,80.38
2022-11-17T21:35:29.517Z,80.77
2022-11-17T21:37:56.706Z,81.58
2022-11-17T21:40:24.280Z,81.47
2022-11-17T21:42:51.712Z,81.29
2022-11-17T21:45:19.021Z,81.59
2022-11-17T21:47:46.690Z,80.53
2022-11-17T21:50:13.885Z,81.29
2022-11-17T21:52:41.143Z,81.20
2022-11-17T21:55:08.760Z,80.20
2022-11-17T21:57:36.002Z,81.36
2022-11-17T22:00:03.200Z,80.44
2022-11-17T22:02:31.831Z,81.25
2022-11-17T22:04:58.979Z,81.42
2022-11-17T22:07:27.568Z,81.26
2022-11-17T22:09:55.206Z,81.39
2022-11-17T22:12:22.540Z,81.42
2022-11-17T22:14:50.036Z,80.81
2022-11-17T22:17:17.561Z,81.39
2022-11-17T22:19:44.674Z,80.25
2022-11-17T22:22:11.705Z,80.62
2022-11-17T22:24:39.867Z,80.15
2022-11-17T22:27:07.302Z,81.52
2022-11-17T22:29:34.697Z,80.46
2022-11-17T22:32:02.091Z,81.50
2022-11-17T22:34:29.290Z,80.74
2022-11-17T22:36:56.379Z,81.05
2022-11-17T22:39:23.713Z,80.78
2022-11-17T22:41:50.928Z,81.20
2022-11-17T22:44:18.257Z,81.14
2022-11-17T22:46:46.163Z,80.51
2022-11-17T22:49:13.625Z,80.48
2022-11-17T22:51:59.429Z,81.08
2022-11-17T22:54:26.787Z,80.97
2022-11-17T22:56:53.920Z,81.82
2022-11-17T22:59:23.063Z,81.80
2022-11-17T23:01:50.447Z,81.80
2022-11-17T23:04:17.726Z,80.69
2022-11-17T23:06:45.310Z,80.76
2022-11-17T23:09:12.834Z,80.55
2022-11-17T23:11:40.044Z,81.21
2022-11-17T23:14:09.195Z,80.85
2022-11-17T23:16:36.933Z,80.85
2022-11-17T23:19:04.560Z,80.66
2022-11-17T23:21:31.810Z,81.08
2022-11-17T23:23:59.076Z,81.08
2022-11-17T23:26:26.322Z,81.18
2022-11-17T23:28:53.526Z,81.69
2022-11-17T23:31:20.615Z,81.10
2022-11-17T23:33:48.079Z,81.92
2022-11-17T23:36:16.656Z,81.95
2022-11-17T23:38:44.496Z,81.92
2022-11-17T23:41:13.123Z,81.32
2022-11-17T23:43:40.665Z,81.31
2022-11-17T23:46:10.500Z,82.44
2022-11-17T23:48:37.905Z,81.83
2022-11-17T23:51:06.167Z,81.43
2022-11-17T23:53:33.796Z,81.69
2022-11-17T23:56:01.559Z,82.70
2022-11-17T23:58:29.697Z,82.36
